Time;durP1;ratioP1;P1;durP2;ratioP2;P2;SDS_P1;SDS_P2;PMS_P1;PMS_P2;Temp;Humidity;BMP_temperature;BMP_pressure;BME280_temperature;BME280_humidity;BME280_pressure;Samples;Min_cycle;Max_cycle;Signal;HPM_P1;HPM_P2
2021/03/18 00:01:01;;;;;;;13.43;12.20;;;3.80;99.90;;;;;;4982095;28;20661;-68
2021/03/18 00:03:51;;;;;;;14.23;12.73;;;3.80;99.90;;;;;;4979006;28;20790;-69
2021/03/18 00:06:23;;;;;;;14.43;12.97;;;3.80;99.90;;;;;;4973104;28;20609;-68
2021/03/18 00:08:49;;;;;;;14.07;12.63;;;3.80;99.90;;;;;;4974544;28;21113;-68
2021/03/18 00:11:24;;;;;;;15.90;13.43;;;3.80;99.90;;;;;;4974614;28;21257;-69
2021/03/18 00:13:54;;;;;;;15.17;13.57;;;3.80;99.90;;;;;;4979011;28;20691;-68
2021/03/18 00:16:22;;;;;;;15.60;14.00;;;3.80;99.90;;;;;;4976608;28;20655;-68
2021/03/18 00:18:57;;;;;;;16.63;14.83;;;3.80;99.90;;;;;;4979594;28;20650;-68
2021/03/18 00:21:25;;;;;;;18.97;16.00;;;3.90;99.90;;;;;;4987364;28;20659;-68
2021/03/18 00:23:56;;;;;;;16.40;14.80;;;3.90;99.90;;;;;;4984486;28;20641;-68
2021/03/18 00:26:42;;;;;;;17.00;15.40;;;3.90;99.90;;;;;;4986020;28;20705;-68
2021/03/18 00:29:10;;;;;;;16.37;14.70;;;3.90;99.90;;;;;;4979416;28;20683;-68
2021/03/18 00:31:41;;;;;;;16.47;14.83;;;3.90;99.90;;;;;;4982434;28;20620;-69
2021/03/18 00:34:09;;;;;;;17.27;15.47;;;3.90;99.90;;;;;;4975991;28;21040;-69
2021/03/18 00:36:36;;;;;;;18.00;16.13;;;3.90;99.90;;;;;;4987674;28;20701;-68
2021/03/18 00:39:08;;;;;;;17.00;15.30;;;3.90;99.90;;;;;;4994726;28;20688;-68
2021/03/18 00:41:41;;;;;;;17.80;16.00;;;3.90;99.90;;;;;;4996404;28;20635;-69
2021/03/18 00:44:16;;;;;;;17.53;15.83;;;4.00;99.90;;;;;;4989306;28;21177;-68
2021/03/18 00:46:44;;;;;;;17.70;15.80;;;4.00;99.90;;;;;;4993827;28;20822;-68
2021/03/18 00:49:12;;;;;;;20.20;16.80;;;4.00;99.90;;;;;;4997148;28;20703;-69
2021/03/18 00:51:37;;;;;;;18.47;16.63;;;4.00;99.90;;;;;;4992202;28;20977;-69
2021/03/18 00:54:03;;;;;;;17.70;16.00;;;4.00;99.90;;;;;;4981407;28;20745;-69
2021/03/18 00:56:33;;;;;;;19.00;17.10;;;4.00;99.90;;;;;;4981790;28;20293;-69
2021/03/18 00:58:58;;;;;;;19.27;17.27;;;4.00;99.90;;;;;;4984449;28;20540;-68
2021/03/18 01:01:29;;;;;;;19.87;16.90;;;3.90;99.90;;;;;;4981395;28;20613;-69
2021/03/18 01:04:00;;;;;;;19.33;17.40;;;3.90;99.90;;;;;;4976241;28;20218;-68
2021/03/18 01:06:47;;;;;;;18.90;16.90;;;3.90;99.90;;;;;;4976873;28;20645;-68
2021/03/18 01:09:18;;;;;;;17.50;15.70;;;3.90;99.90;;;;;;4976416;28;20748;-68
2021/03/18 01:11:51;;;;;;;18.07;16.23;;;3.90;99.90;;;;;;4980650;28;20707;-69
2021/03/18 01:14:26;;;;;;;18.97;16.97;;;3.90;99.90;;;;;;4980262;28;20744;-68
2021/03/18 01:17:02;;;;;;;18.53;16.70;;;3.80;99.90;;;;;;4982753;28;21164;-68
2021/03/18 01:19:35;;;;;;;18.47;16.57;;;3.80;99.90;;;;;;4986723;28;20829;-68
2021/03/18 01:22:06;;;;;;;18.40;16.70;;;3.80;99.90;;;;;;4978170;28;21262;-68
2021/03/18 01:24:31;;;;;;;19.07;17.07;;;3.80;99.90;;;;;;4973380;28;21067;-68
2021/03/18 01:26:57;;;;;;;21.10;18.90;;;3.70;99.90;;;;;;4988536;28;20610;-69
2021/03/18 01:29:25;;;;;;;20.93;18.73;;;3.80;99.90;;;;;;4975639;28;20194;-69
2021/03/18 01:31:58;;;;;;;21.57;19.37;;;3.80;99.90;;;;;;4981197;28;20183;-68
2021/03/18 01:34:24;;;;;;;22.20;18.67;;;3.90;99.90;;;;;;4983913;28;20779;-69
2021/03/18 01:37:02;;;;;;;21.13;18.57;;;4.00;99.90;;;;;;4980768;28;20632;-68
2021/03/18 01:39:32;;;;;;;23.33;20.40;;;4.00;99.90;;;;;;4977743;28;20226;-69
2021/03/18 01:42:02;;;;;;;25.93;20.27;;;4.00;99.90;;;;;;4976997;28;20624;-68
2021/03/18 01:44:32;;;;;;;24.83;20.60;;;4.00;99.90;;;;;;4979947;28;21152;-69
2021/03/18 01:47:00;;;;;;;22.60;18.97;;;4.00;99.90;;;;;;4979801;28;20770;-69
2021/03/18 01:49:29;;;;;;;24.00;20.67;;;3.90;99.90;;;;;;4986286;28;20635;-68
2021/03/18 01:52:05;;;;;;;26.03;20.13;;;3.90;99.90;;;;;;4988898;28;20631;-68
2021/03/18 01:54:35;;;;;;;27.00;20.20;;;3.90;99.90;;;;;;4983504;28;21040;-68
2021/03/18 01:57:18;;;;;;;23.63;19.40;;;3.90;99.90;;;;;;4975996;28;20744;-68
2021/03/18 01:59:49;;;;;;;26.10;20.23;;;3.80;99.90;;;;;;4987967;28;20648;-69
2021/03/18 02:02:17;;;;;;;28.07;19.53;;;3.80;99.90;;;;;;4984122;28;20633;-69
2021/03/18 02:04:48;;;;;;;23.13;20.00;;;3.80;99.90;;;;;;4985817;28;20609;-69
2021/03/18 02:07:24;;;;;;;25.97;19.03;;;3.80;99.90;;;;;;4981937;28;20624;-68
2021/03/18 02:09:57;;;;;;;24.50;18.73;;;3.80;99.90;;;;;;4978387;28;21244;-68
2021/03/18 02:12:23;;;;;;;34.37;18.87;;;3.80;99.90;;;;;;4981475;28;20834;-68
2021/03/18 02:14:52;;;;;;;25.20;17.40;;;3.70;99.90;;;;;;4986892;28;21036;-68
2021/03/18 02:17:24;;;;;;;25.07;20.10;;;3.80;99.90;;;;;;4978193;28;20254;-68
2021/03/18 02:20:24;;;;;;;24.73;18.77;;;3.70;99.90;;;;;;4984374;28;20669;-68
2021/03/18 02:23:20;;;;;;;24.70;17.70;;;3.60;99.90;;;;;;4980634;28;20661;-68
2021/03/18 02:26:14;;;;;;;23.77;18.23;;;3.50;99.90;;;;;;4999794;28;20618;-69
2021/03/18 02:28:51;;;;;;;28.03;17.97;;;3.50;99.90;;;;;;4968966;28;20742;-69
2021/03/18 02:32:06;;;;;;;25.27;19.60;;;3.50;99.90;;;;;;4985298;28;20613;-68
2021/03/18 02:35:05;;;;;;;33.80;18.20;;;3.50;99.90;;;;;;4974669;28;20637;-69
2021/03/18 02:40:54;;;;;;;33.20;17.93;;;3.60;99.90;;;;;;4977479;28;20670;-68
2021/03/18 02:43:25;;;;;;;21.93;16.20;;;3.50;99.90;;;;;;4981616;28;20727;-68
2021/03/18 02:45:57;;;;;;;23.83;17.27;;;3.50;99.90;;;;;;4985092;28;21171;-68
2021/03/18 02:48:28;;;;;;;26.33;16.50;;;3.60;99.90;;;;;;4987760;28;20608;-68
2021/03/18 02:51:00;;;;;;;25.67;16.60;;;3.60;99.90;;;;;;4981527;28;20617;-68
2021/03/18 02:53:33;;;;;;;22.43;15.80;;;3.50;99.90;;;;;;4981166;28;20652;-68
2021/03/18 02:56:10;;;;;;;19.53;14.77;;;3.40;99.90;;;;;;4980081;28;20693;-69
2021/03/18 02:58:40;;;;;;;19.90;14.10;;;3.30;99.90;;;;;;4984933;28;20720;-68
2021/03/18 03:01:14;;;;;;;19.80;15.03;;;3.30;99.90;;;;;;4982422;28;20728;-68
2021/03/18 03:03:41;;;;;;;17.00;13.10;;;3.20;99.90;;;;;;4979256;28;20642;-68
2021/03/18 03:06:31;;;;;;;17.33;11.87;;;3.20;99.90;;;;;;4976481;28;21247;-68
2021/03/18 03:09:00;;;;;;;13.93;10.80;;;3.20;99.90;;;;;;4978747;28;21293;-68
2021/03/18 03:11:26;;;;;;;17.03;10.80;;;3.10;99.90;;;;;;4985132;28;20716;-68
2021/03/18 03:14:11;;;;;;;13.80;11.20;;;3.20;99.90;;;;;;4987184;28;20720;-68
2021/03/18 03:16:49;;;;;;;13.10;9.93;;;3.10;99.90;;;;;;4986562;28;20636;-68
2021/03/18 03:19:15;;;;;;;13.70;10.10;;;3.10;99.90;;;;;;4981420;28;20797;-68
2021/03/18 03:21:50;;;;;;;14.73;10.70;;;3.00;99.90;;;;;;4981958;28;20730;-68
2021/03/18 03:24:24;;;;;;;12.27;9.90;;;2.90;99.90;;;;;;4977498;28;20640;-68
2021/03/18 03:26:54;;;;;;;14.10;10.53;;;2.90;99.90;;;;;;4976082;28;20627;-68
2021/03/18 03:29:23;;;;;;;13.30;9.43;;;2.90;99.90;;;;;;4972067;28;21220;-68
2021/03/18 03:31:52;;;;;;;17.10;10.20;;;2.90;99.90;;;;;;4982984;28;20724;-68
2021/03/18 03:34:23;;;;;;;11.37;8.33;;;3.00;99.90;;;;;;4970235;28;20904;-68
2021/03/18 03:36:51;;;;;;;11.50;9.70;;;2.90;99.90;;;;;;4975363;28;20795;-68
2021/03/18 03:39:22;;;;;;;14.07;10.20;;;2.90;99.90;;;;;;4981996;28;20645;-68
2021/03/18 03:41:51;;;;;;;12.97;9.80;;;2.80;99.90;;;;;;4979715;28;20638;-68
2021/03/18 03:44:26;;;;;;;18.83;9.80;;;2.70;99.90;;;;;;4974967;28;20645;-68
2021/03/18 03:46:57;;;;;;;13.23;9.60;;;2.80;99.90;;;;;;4975414;28;20633;-68
2021/03/18 03:49:40;;;;;;;16.60;10.60;;;2.80;99.90;;;;;;4988822;28;20659;-68
2021/03/18 03:52:26;;;;;;;16.70;10.00;;;2.90;99.90;;;;;;4986021;28;20648;-68
2021/03/18 03:55:17;;;;;;;19.27;10.93;;;2.70;99.90;;;;;;4982780;28;20628;-68
2021/03/18 03:58:05;;;;;;;13.90;10.33;;;2.70;99.90;;;;;;4991818;28;20602;-68
2021/03/18 04:00:31;;;;;;;21.53;11.60;;;2.70;99.90;;;;;;4974413;28;20657;-68
2021/03/18 04:03:15;;;;;;;;;;;;;;;;;;;;;
2021/03/18 04:05:45;;;;;;;20.20;11.80;;;2.80;99.90;;;;;;4988713;28;20682;-68
2021/03/18 04:08:25;;;;;;;16.20;11.43;;;2.70;99.90;;;;;;4989669;28;20617;-68
2021/03/18 04:10:58;;;;;;;17.43;10.37;;;2.70;99.90;;;;;;4978639;28;20624;-68
2021/03/18 04:13:34;;;;;;;18.37;10.87;;;2.80;99.90;;;;;;4985121;28;21087;-68
2021/03/18 04:16:04;;;;;;;23.33;10.90;;;2.70;99.90;;;;;;4984290;28;20620;-68
2021/03/18 04:18:36;;;;;;;13.73;9.90;;;2.80;99.90;;;;;;4986168;28;20628;-68
2021/03/18 04:21:11;;;;;;;13.10;9.90;;;2.80;99.90;;;;;;4986063;28;20710;-68
2021/03/18 04:23:50;;;;;;;18.03;9.67;;;2.80;99.90;;;;;;4991484;28;20668;-68
2021/03/18 04:26:29;;;;;;;16.40;11.03;;;2.80;99.90;;;;;;4980706;28;20623;-68
2021/03/18 04:28:54;;;;;;;22.17;11.00;;;2.70;99.90;;;;;;4984442;28;20679;-68
2021/03/18 04:31:23;;;;;;;17.50;10.73;;;2.70;99.90;;;;;;4983908;28;20731;-68
2021/03/18 04:33:53;;;;;;;13.60;10.20;;;2.80;99.90;;;;;;4980247;28;20229;-68
2021/03/18 04:36:19;;;;;;;15.30;10.80;;;2.70;99.90;;;;;;4978677;28;20689;-68
2021/03/18 04:38:45;;;;;;;16.67;10.97;;;2.80;99.90;;;;;;4987402;28;20751;-68
2021/03/18 04:41:11;;;;;;;29.97;12.00;;;2.80;99.90;;;;;;4985338;28;20732;-69
2021/03/18 04:43:39;;;;;;;15.60;10.90;;;2.70;99.90;;;;;;4986235;28;20674;-68
2021/03/18 04:46:07;;;;;;;13.93;10.70;;;2.70;99.90;;;;;;4985416;28;20304;-68
2021/03/18 04:48:38;;;;;;;13.30;10.03;;;2.70;99.90;;;;;;4987476;28;20755;-68
2021/03/18 04:51:12;;;;;;;18.43;10.10;;;2.70;99.90;;;;;;4980140;28;20629;-68
2021/03/18 04:53:48;;;;;;;16.23;9.97;;;2.80;99.90;;;;;;4978408;28;20661;-68
2021/03/18 04:56:16;;;;;;;15.00;10.40;;;2.80;99.90;;;;;;4983125;28;20971;-68
2021/03/18 04:58:53;;;;;;;14.27;9.90;;;2.80;99.90;;;;;;4982086;28;20699;-68
2021/03/18 05:01:42;;;;;;;18.90;11.33;;;2.70;99.90;;;;;;4978044;28;20616;-68
2021/03/18 05:04:18;;;;;;;25.70;9.90;;;2.80;99.90;;;;;;4994849;28;20764;-68
2021/03/18 05:06:52;;;;;;;14.00;9.87;;;2.90;99.90;;;;;;4995589;28;20655;-68
2021/03/18 05:09:33;;;;;;;;;;;;;;;;;;;;;
2021/03/18 05:12:00;;;;;;;15.37;9.83;;;2.90;99.90;;;;;;4979769;28;21202;-69
2021/03/18 05:14:26;;;;;;;17.33;10.03;;;2.90;99.90;;;;;;4980313;28;20689;-68
2021/03/18 05:17:03;;;;;;;15.07;9.77;;;2.90;99.90;;;;;;4977566;28;20849;-68
2021/03/18 05:19:31;;;;;;;19.80;10.27;;;2.90;99.90;;;;;;5001386;23;21297;-65
2021/03/18 05:22:00;;;;;;;14.30;10.50;;;3.00;99.90;;;;;;4986874;28;21208;-63
2021/03/18 05:24:28;;;;;;;17.20;11.10;;;3.00;99.90;;;;;;4989339;28;20620;-65
2021/03/18 05:27:01;;;;;;;15.13;9.80;;;3.00;99.90;;;;;;4987603;28;21027;-65
2021/03/18 05:29:26;;;;;;;16.23;10.20;;;3.00;99.90;;;;;;4978418;28;20645;-65
2021/03/18 05:31:57;;;;;;;23.43;11.13;;;3.00;99.90;;;;;;4984664;28;21211;-63
2021/03/18 05:34:33;;;;;;;19.10;9.80;;;3.10;99.90;;;;;;4991201;28;20221;-65
2021/03/18 05:37:02;;;;;;;16.20;10.37;;;3.30;99.90;;;;;;4987956;28;20639;-65
2021/03/18 05:39:33;;;;;;;22.20;11.63;;;3.10;99.90;;;;;;4983510;28;20657;-65
2021/03/18 05:42:08;;;;;;;19.67;10.17;;;3.10;99.90;;;;;;4986288;28;20647;-64
2021/03/18 05:45:12;;;;;;;18.60;10.77;;;3.20;99.90;;;;;;4978874;28;20651;-64
2021/03/18 05:47:48;;;;;;;21.80;11.43;;;3.30;99.90;;;;;;4979170;28;20648;-65
2021/03/18 05:50:29;;;;;;;20.53;11.47;;;3.30;99.90;;;;;;4975786;28;20700;-65
2021/03/18 05:53:02;;;;;;;18.63;10.87;;;3.20;99.90;;;;;;4984862;28;20693;-65
2021/03/18 05:55:30;;;;;;;18.67;11.20;;;3.20;99.90;;;;;;4983820;28;20636;-65
2021/03/18 05:58:02;;;;;;;21.70;10.53;;;3.30;99.90;;;;;;4985900;28;20629;-64
2021/03/18 06:00:31;;;;;;;23.90;12.33;;;3.30;99.90;;;;;;4984173;28;20645;-65
2021/03/18 06:02:56;;;;;;;18.73;11.20;;;3.30;99.90;;;;;;4985167;28;20654;-70
2021/03/18 06:05:22;;;;;;;23.13;11.53;;;3.40;99.90;;;;;;4987152;28;21029;-65
2021/03/18 06:07:48;;;;;;;16.40;10.20;;;3.60;99.90;;;;;;4987438;28;20621;-65
2021/03/18 06:10:20;;;;;;;20.10;12.80;;;3.60;99.90;;;;;;4990045;28;20245;-65
2021/03/18 06:12:48;;;;;;;24.60;11.80;;;3.50;99.90;;;;;;4962836;28;20657;-65
2021/03/18 06:15:14;;;;;;;21.23;10.30;;;3.40;99.90;;;;;;4966023;28;20618;-65
2021/03/18 06:17:41;;;;;;;26.97;10.87;;;3.50;99.90;;;;;;4965036;28;21238;-65
2021/03/18 06:20:11;;;;;;;19.07;11.10;;;3.60;99.90;;;;;;4962450;28;20748;-66
2021/03/18 06:22:44;;;;;;;27.83;12.03;;;3.70;99.90;;;;;;4969892;28;20664;-66
2021/03/18 06:25:32;;;;;;;22.87;12.70;;;3.70;99.90;;;;;;4992380;28;20725;-65
2021/03/18 06:28:18;;;;;;;20.93;12.10;;;3.70;99.90;;;;;;4974542;28;20617;-66
2021/03/18 06:31:01;;;;;;;23.43;12.07;;;3.60;99.90;;;;;;4975188;28;20645;-66
2021/03/18 06:33:43;;;;;;;21.73;11.83;;;3.60;99.90;;;;;;4965113;28;21124;-66
2021/03/18 06:36:20;;;;;;;25.07;12.30;;;3.60;99.90;;;;;;4977867;28;20609;-66
2021/03/18 06:39:15;;;;;;;19.63;12.17;;;3.70;99.90;;;;;;4977611;28;20621;-66
2021/03/18 06:41:55;;;;;;;25.13;10.43;;;3.70;99.90;;;;;;4973945;28;20583;-65
2021/03/18 06:44:35;;;;;;;18.87;10.97;;;3.70;99.90;;;;;;4963914;28;20671;-65
2021/03/18 06:47:14;;;;;;;20.03;11.70;;;3.80;99.90;;;;;;4981227;28;20593;-65
2021/03/18 06:49:40;;;;;;;21.80;12.93;;;3.80;99.90;;;;;;4980795;28;20664;-65
2021/03/18 06:52:09;;;;;;;20.90;11.57;;;3.80;99.90;;;;;;4975366;28;20629;-65
2021/03/18 06:54:58;;;;;;;23.60;14.10;;;3.90;99.90;;;;;;4975486;28;20214;-65
2021/03/18 06:57:31;;;;;;;18.00;12.87;;;3.80;99.90;;;;;;4968902;28;20953;-66
2021/03/18 06:59:59;;;;;;;23.93;13.33;;;3.80;99.90;;;;;;4970496;28;22135;-66
2021/03/18 07:02:24;;;;;;;19.47;12.50;;;3.90;99.90;;;;;;4970425;28;20637;-65
2021/03/18 07:04:53;;;;;;;21.27;12.70;;;4.00;99.90;;;;;;4958438;28;20631;-65
2021/03/18 07:07:20;;;;;;;20.40;12.20;;;4.00;99.90;;;;;;4968304;28;20244;-65
2021/03/18 07:09:48;;;;;;;23.40;12.80;;;4.10;99.90;;;;;;4983108;28;20633;-65
2021/03/18 07:12:16;;;;;;;20.10;12.40;;;4.10;99.90;;;;;;4975655;28;20621;-64
2021/03/18 07:14:49;;;;;;;24.70;12.70;;;4.00;99.90;;;;;;4996215;28;20654;-65
2021/03/18 07:17:34;;;;;;;22.00;12.27;;;4.00;99.90;;;;;;4980689;28;20617;-65
2021/03/18 07:20:19;;;;;;;18.90;11.00;;;4.20;99.90;;;;;;4980826;28;20792;-65
2021/03/18 07:22:47;;;;;;;23.03;13.03;;;4.10;99.90;;;;;;4978309;28;20694;-65
2021/03/18 07:25:15;;;;;;;19.37;12.10;;;4.10;99.90;;;;;;4986094;28;20633;-65
2021/03/18 07:27:49;;;;;;;19.47;12.90;;;4.10;99.90;;;;;;4984744;28;20625;-65
2021/03/18 07:30:29;;;;;;;18.07;11.30;;;4.10;99.90;;;;;;4978170;28;21017;-66
2021/03/18 07:32:56;;;;;;;20.00;11.00;;;4.10;99.90;;;;;;4982964;28;20656;-65
2021/03/18 07:35:22;;;;;;;20.90;12.97;;;4.10;99.90;;;;;;4979261;28;21120;-65
2021/03/18 07:37:48;;;;;;;17.77;12.23;;;4.20;99.90;;;;;;4982575;28;21164;-65
2021/03/18 07:40:15;;;;;;;20.60;13.83;;;4.10;99.90;;;;;;4987432;28;20648;-65
2021/03/18 07:42:42;;;;;;;21.23;11.53;;;4.10;99.90;;;;;;4981648;28;20650;-65
2021/03/18 07:45:09;;;;;;;19.00;11.10;;;4.20;99.90;;;;;;4979582;28;20715;-65
2021/03/18 07:47:37;;;;;;;19.07;11.73;;;4.20;99.90;;;;;;4988672;28;20814;-67
2021/03/18 07:50:06;;;;;;;21.57;12.03;;;4.40;99.90;;;;;;4984148;28;21238;-66
2021/03/18 07:52:34;;;;;;;18.07;11.37;;;4.40;99.90;;;;;;4980472;28;20652;-64
2021/03/18 07:55:00;;;;;;;17.30;11.97;;;4.50;99.90;;;;;;4978397;28;20606;-65
2021/03/18 07:57:27;;;;;;;22.40;11.03;;;4.40;99.90;;;;;;4975559;28;20621;-65
2021/03/18 08:00:09;;;;;;;16.70;11.50;;;4.40;99.90;;;;;;4982614;28;20657;-65
2021/03/18 08:02:35;;;;;;;19.87;11.17;;;4.30;99.90;;;;;;4982797;28;20648;-66
2021/03/18 08:05:00;;;;;;;18.50;11.40;;;4.20;99.90;;;;;;4971936;28;20623;-66
2021/03/18 08:07:43;;;;;;;19.23;10.80;;;4.30;99.90;;;;;;4975506;28;20632;-66
2021/03/18 08:10:20;;;;;;;17.90;11.47;;;4.30;99.90;;;;;;4981188;28;20582;-65
2021/03/18 08:12:53;;;;;;;18.83;12.10;;;4.40;99.90;;;;;;4964364;28;21266;-65
2021/03/18 08:15:27;;;;;;;18.47;11.60;;;4.30;99.90;;;;;;4997501;28;20618;-66
2021/03/18 08:17:55;;;;;;;17.63;12.30;;;4.30;99.90;;;;;;4985748;28;20674;-65
2021/03/18 08:20:42;;;;;;;17.13;11.63;;;4.40;99.90;;;;;;4979749;28;20648;-65
2021/03/18 08:23:25;;;;;;;17.33;11.03;;;4.50;99.90;;;;;;4980504;28;21250;-66
2021/03/18 08:25:53;;;;;;;22.30;12.40;;;4.50;99.90;;;;;;4981223;28;20632;-65
2021/03/18 08:28:47;;;;;;;18.43;12.13;;;4.50;99.90;;;;;;4984560;28;20609;-66
2021/03/18 08:31:19;;;;;;;21.73;13.50;;;4.50;99.90;;;;;;4981806;28;20668;-66
2021/03/18 08:33:55;;;;;;;24.50;13.67;;;4.50;99.90;;;;;;4981996;28;21400;-65
2021/03/18 08:36:33;;;;;;;19.47;12.50;;;4.60;99.90;;;;;;4986095;28;20704;-66
2021/03/18 08:39:04;;;;;;;20.67;13.07;;;4.70;99.90;;;;;;4988790;28;20656;-66
2021/03/18 08:41:29;;;;;;;21.00;12.67;;;4.70;99.90;;;;;;4982205;28;20632;-66
2021/03/18 08:44:22;;;;;;;20.00;12.83;;;4.80;99.90;;;;;;4984445;28;20638;-66
2021/03/18 08:47:05;;;;;;;21.37;12.40;;;4.80;99.90;;;;;;4983372;28;20190;-65
2021/03/18 08:49:36;;;;;;;19.50;12.07;;;4.90;99.90;;;;;;5000768;28;20656;-65
2021/03/18 08:52:32;;;;;;;16.30;10.97;;;4.90;99.90;;;;;;4978681;28;20987;-64
2021/03/18 08:54:58;;;;;;;23.03;12.47;;;5.00;99.90;;;;;;4978125;28;21004;-66
2021/03/18 08:57:29;;;;;;;14.90;10.87;;;5.10;99.90;;;;;;4981924;28;20632;-65
2021/03/18 09:00:06;;;;;;;14.60;10.37;;;5.30;99.90;;;;;;4985271;28;20214;-65
2021/03/18 09:02:34;;;;;;;15.50;11.00;;;5.30;99.90;;;;;;4977178;28;20657;-65
2021/03/18 09:05:10;;;;;;;12.50;10.50;;;5.30;99.90;;;;;;4984677;28;20703;-67
2021/03/18 09:07:36;;;;;;;13.10;10.10;;;5.20;99.90;;;;;;4980773;28;20612;-66
2021/03/18 09:10:06;;;;;;;13.83;10.40;;;5.20;99.90;;;;;;4971702;28;20657;-66
2021/03/18 09:12:40;;;;;;;14.20;10.93;;;5.20;99.90;;;;;;4975119;28;20776;-66
2021/03/18 09:15:31;;;;;;;14.57;10.47;;;5.20;99.90;;;;;;4981606;28;20621;-67
2021/03/18 09:18:15;;;;;;;14.20;10.33;;;5.20;99.90;;;;;;4980207;28;20633;-66
2021/03/18 09:20:43;;;;;;;14.93;10.63;;;5.10;99.90;;;;;;4976410;28;20660;-65
2021/03/18 09:23:15;;;;;;;13.50;10.10;;;5.20;99.90;;;;;;4975074;28;21287;-66
2021/03/18 09:25:43;;;;;;;12.10;9.10;;;5.30;99.90;;;;;;4999535;28;20731;-65
2021/03/18 09:28:10;;;;;;;14.40;9.70;;;5.30;99.90;;;;;;4980976;28;21195;-65
2021/03/18 09:30:41;;;;;;;12.87;8.87;;;5.40;99.90;;;;;;4977860;28;20743;-65
2021/03/18 09:33:29;;;;;;;12.23;8.97;;;5.50;99.90;;;;;;4979169;28;20760;-65
2021/03/18 09:35:57;;;;;;;14.13;9.37;;;5.50;99.90;;;;;;4975994;28;21257;-65
2021/03/18 09:38:29;;;;;;;11.10;8.67;;;5.50;99.90;;;;;;4978443;28;21156;-65
2021/03/18 09:40:58;;;;;;;12.07;9.20;;;5.50;99.90;;;;;;4980617;28;20656;-65
2021/03/18 09:43:25;;;;;;;10.13;8.33;;;5.50;99.90;;;;;;4976919;28;21232;-66
2021/03/18 09:45:56;;;;;;;12.67;8.63;;;5.50;99.90;;;;;;4976622;28;21109;-66
2021/03/18 09:48:29;;;;;;;10.50;8.20;;;5.60;99.90;;;;;;4980873;28;20629;-66
2021/03/18 09:51:08;;;;;;;10.17;8.70;;;5.60;99.90;;;;;;4990081;28;20673;-65
2021/03/18 09:53:35;;;;;;;9.27;8.37;;;5.70;99.90;;;;;;4975920;28;20814;-65
2021/03/18 09:56:06;;;;;;;9.57;7.50;;;5.70;99.90;;;;;;4991497;28;20614;-65
2021/03/18 09:58:31;;;;;;;8.90;7.53;;;5.80;99.90;;;;;;4970624;28;20655;-65
2021/03/18 10:00:57;;;;;;;9.43;7.87;;;5.80;99.90;;;;;;4982289;28;21203;-65
2021/03/18 10:03:23;;;;;;;11.60;8.03;;;5.90;99.90;;;;;;4983725;28;20698;-65
2021/03/18 10:05:48;;;;;;;9.07;8.17;;;5.90;99.90;;;;;;4979306;28;20191;-66
2021/03/18 10:08:14;;;;;;;8.93;7.70;;;5.90;99.90;;;;;;4978813;28;20655;-65
2021/03/18 10:10:39;;;;;;;9.77;8.70;;;5.90;99.90;;;;;;4977117;28;20233;-66
2021/03/18 10:13:05;;;;;;;11.70;8.10;;;6.10;99.90;;;;;;4980143;28;20539;-66
2021/03/18 10:15:31;;;;;;;10.63;8.17;;;6.10;99.90;;;;;;4973412;28;20204;-66
2021/03/18 10:17:58;;;;;;;9.20;8.13;;;6.20;99.90;;;;;;4972063;28;20190;-66
2021/03/18 10:20:27;;;;;;;9.90;8.10;;;6.20;99.90;;;;;;4990758;28;20657;-66
2021/03/18 10:23:00;;;;;;;10.90;7.83;;;6.20;99.90;;;;;;4970817;28;20641;-65
2021/03/18 10:25:28;;;;;;;8.57;7.67;;;6.30;99.90;;;;;;4978107;28;20953;-66
2021/03/18 10:28:09;;;;;;;9.63;8.07;;;6.30;99.90;;;;;;4974223;28;20621;-66
2021/03/18 10:30:38;;;;;;;10.70;7.57;;;6.30;99.90;;;;;;4978164;28;20823;-66
2021/03/18 10:33:21;;;;;;;8.60;7.50;;;6.30;99.90;;;;;;4978009;28;21011;-66
2021/03/18 10:35:53;;;;;;;8.47;7.67;;;6.20;99.90;;;;;;4988648;28;20590;-66
2021/03/18 10:38:24;;;;;;;8.67;7.77;;;6.10;99.90;;;;;;4977668;28;20606;-66
2021/03/18 10:40:50;;;;;;;9.30;7.93;;;6.20;99.90;;;;;;4973658;28;20736;-66
2021/03/18 10:43:20;;;;;;;8.83;7.80;;;6.20;99.90;;;;;;4974163;28;20658;-66
2021/03/18 10:45:46;;;;;;;8.13;7.33;;;6.30;99.90;;;;;;4976873;28;20633;-66
2021/03/18 10:48:20;;;;;;;8.97;7.70;;;6.40;99.90;;;;;;4974185;28;20672;-66
2021/03/18 10:50:47;;;;;;;8.53;7.70;;;6.50;99.90;;;;;;4979850;28;20648;-66
2021/03/18 10:53:14;;;;;;;8.17;7.47;;;6.50;99.90;;;;;;4975450;28;21045;-66
2021/03/18 10:55:49;;;;;;;7.40;6.70;;;6.60;99.90;;;;;;4982755;28;20633;-65
2021/03/18 10:58:21;;;;;;;10.13;7.30;;;6.70;99.90;;;;;;4979715;28;22457;-66
2021/03/18 11:00:48;;;;;;;9.37;7.53;;;6.90;99.90;;;;;;4995488;28;21235;-66
2021/03/18 11:03:17;;;;;;;8.77;7.70;;;7.10;99.90;;;;;;4967259;28;20719;-66
2021/03/18 11:05:48;;;;;;;8.83;7.53;;;7.30;99.90;;;;;;4972877;28;20649;-66
2021/03/18 11:08:16;;;;;;;8.77;7.77;;;7.40;99.90;;;;;;4976559;28;20687;-66
2021/03/18 11:10:47;;;;;;;8.27;7.47;;;7.50;99.90;;;;;;4971941;28;20671;-66
2021/03/18 11:13:24;;;;;;;8.20;7.33;;;7.60;99.90;;;;;;4978410;28;21251;-67
2021/03/18 11:15:58;;;;;;;9.03;7.47;;;7.70;99.90;;;;;;4980586;28;20639;-64
2021/03/18 11:18:45;;;;;;;8.90;7.67;;;7.90;99.90;;;;;;4976149;28;20621;-67
2021/03/18 11:21:29;;;;;;;8.80;7.80;;;8.10;99.90;;;;;;4997132;23;20696;-69
2021/03/18 11:24:05;;;;;;;9.07;8.13;;;8.40;99.90;;;;;;4971912;28;21246;-69
2021/03/18 11:26:31;;;;;;;9.60;8.60;;;8.30;99.90;;;;;;4979124;28;20617;-69
2021/03/18 11:29:04;;;;;;;7.97;7.30;;;8.40;99.90;;;;;;4979600;28;20652;-69
2021/03/18 11:31:30;;;;;;;9.00;7.90;;;8.50;99.90;;;;;;4978947;28;20214;-70
2021/03/18 11:34:10;;;;;;;8.47;7.77;;;8.60;99.90;;;;;;4983664;28;20668;-68
2021/03/18 11:36:36;;;;;;;8.70;7.90;;;8.70;99.90;;;;;;4980962;28;20597;-69
2021/03/18 11:39:02;;;;;;;8.77;7.90;;;9.00;99.90;;;;;;4981331;28;20677;-69
2021/03/18 11:41:27;;;;;;;8.20;7.47;;;9.10;99.90;;;;;;4996689;28;20202;-68
2021/03/18 11:43:53;;;;;;;9.47;7.83;;;9.40;99.90;;;;;;4983890;28;20741;-68
2021/03/18 11:46:21;;;;;;;9.90;7.63;;;9.50;99.90;;;;;;4981463;28;20190;-69
2021/03/18 11:48:47;;;;;;;8.40;7.57;;;9.60;99.90;;;;;;4973974;28;20198;-69
2021/03/18 11:51:12;;;;;;;10.23;9.23;;;9.60;99.90;;;;;;4969807;28;21104;-69
2021/03/18 11:53:38;;;;;;;8.30;7.50;;;9.70;99.90;;;;;;4974166;28;20320;-70
2021/03/18 11:56:04;;;;;;;8.40;7.60;;;9.80;99.90;;;;;;4971684;28;20194;-69
2021/03/18 11:58:29;;;;;;;8.80;7.90;;;9.90;99.90;;;;;;4980112;28;20646;-69
2021/03/18 12:00:55;;;;;;;8.20;7.27;;;10.00;99.90;;;;;;4973005;28;20692;-69
2021/03/18 12:03:21;;;;;;;7.63;7.03;;;10.00;99.90;;;;;;4981367;28;20233;-69
2021/03/18 12:05:46;;;;;;;7.40;6.70;;;10.00;99.90;;;;;;4980971;28;20195;-69
2021/03/18 12:08:12;;;;;;;7.83;7.13;;;9.80;99.90;;;;;;4990905;28;20194;-69
2021/03/18 12:10:39;;;;;;;10.17;8.20;;;9.50;99.90;;;;;;4979265;28;20210;-69
2021/03/18 12:13:05;;;;;;;7.37;6.73;;;9.30;99.90;;;;;;4981525;28;20985;-69
2021/03/18 12:15:31;;;;;;;8.73;7.00;;;9.20;99.90;;;;;;4978591;28;21261;-69
2021/03/18 12:17:56;;;;;;;7.77;7.07;;;9.00;99.90;;;;;;4980071;28;20193;-69
2021/03/18 12:20:23;;;;;;;8.17;7.07;;;8.80;99.90;;;;;;4977487;28;20265;-68
2021/03/18 12:22:49;;;;;;;8.20;6.90;;;8.80;99.90;;;;;;4975945;28;22043;-69
2021/03/18 12:25:16;;;;;;;10.63;8.20;;;8.70;99.90;;;;;;4980603;28;21172;-69
2021/03/18 12:27:42;;;;;;;20.93;8.00;;;8.60;99.90;;;;;;4979702;28;20258;-69
2021/03/18 12:30:13;;;;;;;8.57;7.37;;;8.50;99.90;;;;;;4981196;28;20655;-68
2021/03/18 12:32:39;;;;;;;8.77;7.87;;;8.40;99.90;;;;;;4998624;28;20700;-68
2021/03/18 12:35:05;;;;;;;8.70;7.27;;;8.40;99.90;;;;;;4985023;28;20617;-69
2021/03/18 12:37:31;;;;;;;7.50;6.70;;;8.30;99.90;;;;;;4979789;28;20190;-68
2021/03/18 12:39:56;;;;;;;6.53;5.93;;;8.30;99.90;;;;;;4984501;28;20649;-69
2021/03/18 12:42:22;;;;;;;6.93;6.23;;;8.20;99.90;;;;;;4980519;28;20332;-68
2021/03/18 12:44:49;;;;;;;7.33;6.67;;;8.20;99.90;;;;;;4977627;28;20286;-69
2021/03/18 12:47:14;;;;;;;7.20;5.97;;;8.10;99.90;;;;;;4977687;28;20197;-68
2021/03/18 12:49:40;;;;;;;6.93;6.23;;;8.10;99.90;;;;;;5001215;28;20625;-68
2021/03/18 12:52:06;;;;;;;7.27;6.00;;;8.10;99.90;;;;;;4984684;28;20278;-67
2021/03/18 12:54:33;;;;;;;7.80;7.00;;;8.00;99.90;;;;;;4978597;28;20214;-68
2021/03/18 12:56:59;;;;;;;8.80;6.10;;;8.00;99.90;;;;;;4981739;28;20648;-68
2021/03/18 12:59:25;;;;;;;6.63;6.03;;;8.10;99.90;;;;;;4982675;28;20664;-68
2021/03/18 13:01:51;;;;;;;9.40;5.83;;;8.00;99.90;;;;;;4979050;28;20662;-68
2021/03/18 13:04:17;;;;;;;7.57;6.40;;;8.10;99.90;;;;;;4986965;28;20807;-68
2021/03/18 13:06:43;;;;;;;7.00;6.30;;;8.10;99.90;;;;;;4983182;28;20319;-68
2021/03/18 13:09:09;;;;;;;7.00;6.30;;;8.10;99.90;;;;;;4991399;28;20201;-68
2021/03/18 13:11:36;;;;;;;7.10;6.40;;;8.00;99.90;;;;;;4982978;28;20660;-68
2021/03/18 13:14:01;;;;;;;7.37;6.50;;;8.00;99.90;;;;;;4979149;28;20649;-68